Time,TemperatureF,DewpointF,PressureIn,WindDirection,WindDirectionDegrees,WindSpeedMPH,WindSpeedGustMPH,Humidity,HourlyPrecipIn,Conditions,Clouds,dailyrainin,SolarRadiationWatts/m^2,SoftwareType,DateUTC
2013-09-04 00:03:00,67.0,58.0,-100.00,WNW,298,3.0,9.0,74,0.00,,,0.00,0.000000,,2013-09-04 05:03:00,
2013-09-04 00:23:00,66.0,59.0,-100.00,North,4,4.0,11.0,78,0.00,,,0.00,0.000000,,2013-09-04 05:23:00,
2013-09-04 00:34:00,66.0,59.0,-100.00,North,4,4.0,11.0,78,0.00,,,0.00,0.000000,,2013-09-04 05:34:00,
2013-09-04 00:43:00,66.0,59.0,-100.00,North,4,4.0,11.0,78,0.00,,,0.00,0.000000,,2013-09-04 05:43:00,
2013-09-04 00:53:00,66.0,59.0,-100.00,North,4,4.0,11.0,78,0.00,,,0.00,0.000000,,2013-09-04 05:53:00,
2013-09-04 01:02:00,66.0,59.0,-100.00,North,4,4.0,11.0,78,0.00,,,0.00,0.000000,,2013-09-04 06:02:00,
2013-09-04 01:22:00,64.0,56.0,-100.00,North,5,4.0,10.0,74,0.00,,,0.00,0.000000,,2013-09-04 06:22:00,
2013-09-04 01:32:00,64.0,56.0,-100.00,North,5,4.0,10.0,74,0.00,,,0.00,0.000000,,2013-09-04 06:32:00,
2013-09-04 01:42:00,64.0,56.0,-100.00,North,5,4.0,10.0,74,0.00,,,0.00,0.000000,,2013-09-04 06:42:00,
2013-09-04 01:52:00,64.0,56.0,-100.00,North,5,4.0,10.0,74,0.00,,,0.00,0.000000,,2013-09-04 06:52:00,
2013-09-04 02:02:00,64.0,56.0,-100.00,North,5,4.0,10.0,74,0.00,,,0.00,0.000000,,2013-09-04 07:02:00,
2013-09-04 02:22:00,59.0,52.0,-100.00,NNE,21,3.0,10.0,79,0.00,,,0.00,0.000000,,2013-09-04 07:22:00,
2013-09-04 02:32:00,59.0,52.0,-100.00,NNE,21,3.0,10.0,79,0.00,,,0.00,0.000000,,2013-09-04 07:32:00,
2013-09-04 02:42:00,59.0,52.0,-100.00,NNE,21,3.0,10.0,79,0.00,,,0.00,0.000000,,2013-09-04 07:42:00,
2013-09-04 02:52:00,59.0,52.0,-100.00,NNE,21,3.0,10.0,79,0.00,,,0.00,0.000000,,2013-09-04 07:52:00,
2013-09-04 03:02:00,59.0,52.0,-100.00,NNE,21,3.0,10.0,79,0.00,,,0.00,0.000000,,2013-09-04 08:02:00,
2013-09-04 03:22:00,57.0,46.0,-100.00,NNE,19,4.0,10.0,67,0.00,,,0.00,0.000000,,2013-09-04 08:22:00,
2013-09-04 03:32:00,57.0,46.0,-100.00,NNE,19,4.0,10.0,67,0.00,,,0.00,0.000000,,2013-09-04 08:32:00,
2013-09-04 03:43:00,57.0,46.0,-100.00,NNE,19,4.0,10.0,67,0.00,,,0.00,0.000000,,2013-09-04 08:43:00,
2013-09-04 03:52:00,57.0,46.0,-100.00,NNE,19,4.0,10.0,67,0.00,,,0.00,0.000000,,2013-09-04 08:52:00,
2013-09-04 04:01:00,57.0,46.0,-100.00,NNE,19,4.0,10.0,67,0.00,,,0.00,0.000000,,2013-09-04 09:01:00,
2013-09-04 04:22:00,54.0,45.0,-100.00,NNE,18,3.0,9.0,72,0.00,,,0.00,0.000000,,2013-09-04 09:22:00,
2013-09-04 04:33:00,54.0,45.0,-100.00,NNE,18,3.0,9.0,72,0.00,,,0.00,0.000000,,2013-09-04 09:33:00,
2013-09-04 04:43:00,54.0,45.0,-100.00,NNE,18,3.0,9.0,72,0.00,,,0.00,0.000000,,2013-09-04 09:43:00,
2013-09-04 04:53:00,54.0,45.0,-100.00,NNE,18,3.0,9.0,72,0.00,,,0.00,0.000000,,2013-09-04 09:53:00,
2013-09-04 05:03:00,54.0,45.0,-100.00,NNE,18,3.0,9.0,72,0.00,,,0.00,0.000000,,2013-09-04 10:03:00,
2013-09-04 05:23:00,51.0,45.0,-100.00,NNE,28,3.0,9.0,81,0.00,,,0.00,0.000000,,2013-09-04 10:23:00,
2013-09-04 05:33:00,51.0,45.0,-100.00,NNE,28,3.0,9.0,81,0.00,,,0.00,0.000000,,2013-09-04 10:33:00,
2013-09-04 05:42:00,51.0,45.0,-100.00,NNE,28,3.0,9.0,81,0.00,,,0.00,0.000000,,2013-09-04 10:42:00,
2013-09-04 05:52:00,51.0,45.0,-100.00,NNE,28,3.0,9.0,81,0.00,,,0.00,0.000000,,2013-09-04 10:52:00,
2013-09-04 06:02:00,51.0,45.0,-100.00,NNE,28,3.0,9.0,81,0.00,,,0.00,0.000000,,2013-09-04 11:02:00,
2013-09-04 06:22:00,50.0,47.0,-100.00,NE,39,4.0,8.0,88,0.00,,,0.00,0.000000,,2013-09-04 11:22:00,
2013-09-04 06:33:00,50.0,47.0,-100.00,NE,39,4.0,8.0,88,0.00,,,0.00,0.000000,,2013-09-04 11:33:00,
2013-09-04 06:42:00,50.0,47.0,-100.00,NE,39,4.0,8.0,88,0.00,,,0.00,0.000000,,2013-09-04 11:42:00,
2013-09-04 06:52:00,50.0,47.0,-100.00,NE,39,4.0,8.0,88,0.00,,,0.00,0.000000,,2013-09-04 11:52:00,
2013-09-04 07:02:00,50.0,47.0,-100.00,NE,39,4.0,8.0,88,0.00,,,0.00,0.000000,,2013-09-04 12:02:00,
2013-09-04 07:21:00,50.0,46.0,-100.00,ENE,60,4.0,9.0,87,0.00,,,0.00,17.000000,,2013-09-04 12:21:00,
2013-09-04 07:32:00,50.0,46.0,-100.00,ENE,60,4.0,9.0,87,0.00,,,0.00,17.000000,,2013-09-04 12:32:00,
2013-09-04 07:42:00,50.0,46.0,-100.00,ENE,60,4.0,9.0,87,0.00,,,0.00,17.000000,,2013-09-04 12:42:00,
2013-09-04 07:52:00,50.0,46.0,-100.00,ENE,60,4.0,9.0,87,0.00,,,0.00,17.000000,,2013-09-04 12:52:00,
2013-09-04 08:01:00,50.0,46.0,-100.00,ENE,60,4.0,9.0,87,0.00,,,0.00,17.000000,,2013-09-04 13:01:00,
2013-09-04 08:42:00,51.0,42.0,-100.00,ENE,61,4.0,9.0,71,0.00,,,0.00,150.000000,,2013-09-04 13:42:00,
2013-09-04 08:52:00,51.0,42.0,-100.00,ENE,61,4.0,9.0,71,0.00,,,0.00,150.000000,,2013-09-04 13:52:00,
2013-09-04 09:02:00,51.0,42.0,-100.00,ENE,61,4.0,9.0,71,0.00,,,0.00,150.000000,,2013-09-04 14:02:00,
2013-09-04 09:21:00,56.0,43.0,-100.00,ENE,70,4.0,9.0,62,0.00,,,0.00,369.000000,,2013-09-04 14:21:00,
2013-09-04 09:32:00,56.0,43.0,-100.00,ENE,70,4.0,9.0,62,0.00,,,0.00,369.000000,,2013-09-04 14:32:00,
2013-09-04 09:42:00,56.0,43.0,-100.00,ENE,70,4.0,9.0,62,0.00,,,0.00,369.000000,,2013-09-04 14:42:00,
2013-09-04 09:52:00,56.0,43.0,-100.00,ENE,70,4.0,9.0,62,0.00,,,0.00,369.000000,,2013-09-04 14:52:00,
2013-09-04 10:02:00,56.0,43.0,-100.00,ENE,70,4.0,9.0,62,0.00,,,0.00,369.000000,,2013-09-04 15:02:00,
2013-09-04 10:04:00,58.0,42.0,-100.00,ENE,57,4.0,8.0,55,0.00,,,0.00,561.000000,,2013-09-04 15:04:00,
2013-09-04 10:43:00,58.0,42.0,-100.00,ENE,57,4.0,8.0,55,0.00,,,0.00,561.000000,,2013-09-04 15:43:00,
2013-09-04 10:53:00,58.0,42.0,-100.00,ENE,57,4.0,8.0,55,0.00,,,0.00,561.000000,,2013-09-04 15:53:00,
2013-09-04 11:43:00,60.0,40.0,-100.00,ENE,74,4.0,7.0,47,0.00,,,0.00,706.000000,,2013-09-04 16:43:00,
2013-09-04 11:53:00,60.0,40.0,-100.00,ENE,74,4.0,7.0,47,0.00,,,0.00,706.000000,,2013-09-04 16:53:00,
2013-09-04 12:03:00,60.0,40.0,-100.00,ENE,74,4.0,7.0,47,0.00,,,0.00,706.000000,,2013-09-04 17:03:00,
2013-09-04 12:42:00,63.0,41.0,-100.00,NE,43,3.0,7.0,44,0.00,,,0.00,827.000000,,2013-09-04 17:42:00,
2013-09-04 12:53:00,63.0,41.0,-100.00,NE,43,3.0,7.0,44,0.00,,,0.00,827.000000,,2013-09-04 17:53:00,
2013-09-04 13:02:00,63.0,41.0,-100.00,NE,43,3.0,7.0,44,0.00,,,0.00,827.000000,,2013-09-04 18:02:00,
2013-09-04 13:42:00,64.0,37.0,-100.00,NW,319,5.0,9.0,37,0.00,,,0.00,887.000000,,2013-09-04 18:42:00,
2013-09-04 13:52:00,64.0,37.0,-100.00,NW,319,5.0,9.0,37,0.00,,,0.00,887.000000,,2013-09-04 18:52:00,
2013-09-04 14:02:00,64.0,37.0,-100.00,NW,319,5.0,9.0,37,0.00,,,0.00,887.000000,,2013-09-04 19:02:00,
2013-09-04 14:22:00,67.0,35.0,-100.00,NNW,331,5.0,11.0,30,0.00,,,0.00,889.000000,,2013-09-04 19:22:00,
2013-09-04 14:32:00,67.0,35.0,-100.00,NNW,331,5.0,11.0,30,0.00,,,0.00,889.000000,,2013-09-04 19:32:00,
2013-09-04 14:42:00,67.0,35.0,-100.00,NNW,331,5.0,11.0,30,0.00,,,0.00,889.000000,,2013-09-04 19:42:00,
2013-09-04 14:52:00,67.0,35.0,-100.00,NNW,331,5.0,11.0,30,0.00,,,0.00,889.000000,,2013-09-04 19:52:00,
2013-09-04 15:02:00,67.0,35.0,-100.00,NNW,331,5.0,11.0,30,0.00,,,0.00,889.000000,,2013-09-04 20:02:00,
2013-09-04 15:43:00,67.0,38.0,-100.00,WNW,298,5.0,12.0,35,0.00,,,0.00,379.000000,,2013-09-04 20:43:00,
2013-09-04 15:53:00,67.0,38.0,-100.00,WNW,298,5.0,12.0,35,0.00,,,0.00,379.000000,,2013-09-04 20:53:00,
2013-09-04 16:02:00,67.0,38.0,-100.00,WNW,298,5.0,12.0,35,0.00,,,0.00,379.000000,,2013-09-04 21:02:00,
2013-09-04 16:04:00,68.0,34.0,-100.00,NW,315,5.0,11.0,28,0.00,,,0.00,595.000000,,2013-09-04 21:04:00,
2013-09-04 16:44:00,68.0,34.0,-100.00,NW,315,5.0,11.0,28,0.00,,,0.00,595.000000,,2013-09-04 21:44:00,
2013-09-04 16:54:00,68.0,34.0,-100.00,NW,315,5.0,11.0,28,0.00,,,0.00,595.000000,,2013-09-04 21:54:00,
2013-09-04 17:23:00,67.0,33.0,-100.00,NNW,333,5.0,10.0,28,0.00,,,0.00,560.000000,,2013-09-04 22:23:00,
2013-09-04 17:33:00,67.0,33.0,-100.00,NNW,333,5.0,10.0,28,0.00,,,0.00,560.000000,,2013-09-04 22:33:00,
2013-09-04 17:43:00,67.0,33.0,-100.00,NNW,333,5.0,10.0,28,0.00,,,0.00,560.000000,,2013-09-04 22:43:00,
2013-09-04 17:55:00,67.0,33.0,-100.00,NNW,333,5.0,10.0,28,0.00,,,0.00,560.000000,,2013-09-04 22:55:00,
2013-09-04 18:03:00,67.0,33.0,-100.00,NNW,333,5.0,10.0,28,0.00,,,0.00,560.000000,,2013-09-04 23:03:00,
2013-09-04 18:22:00,65.0,37.0,-100.00,NW,314,4.0,10.0,36,0.00,,,0.00,331.000000,,2013-09-04 23:22:00,
2013-09-04 18:34:00,65.0,37.0,-100.00,NW,314,4.0,10.0,36,0.00,,,0.00,331.000000,,2013-09-04 23:34:00,
2013-09-04 18:42:00,65.0,37.0,-100.00,NW,314,4.0,10.0,36,0.00,,,0.00,331.000000,,2013-09-04 23:42:00,
2013-09-04 18:52:00,65.0,37.0,-100.00,NW,314,4.0,10.0,36,0.00,,,0.00,331.000000,,2013-09-04 23:52:00,
2013-09-04 19:01:00,65.0,37.0,-100.00,NW,314,4.0,10.0,36,0.00,,,0.00,331.000000,,2013-09-05 00:01:00,
2013-09-04 19:22:00,62.0,42.0,-100.00,NW,305,3.0,9.0,48,0.00,,,0.00,108.000000,,2013-09-05 00:22:00,
2013-09-04 19:32:00,62.0,42.0,-100.00,NW,305,3.0,9.0,48,0.00,,,0.00,108.000000,,2013-09-05 00:32:00,
2013-09-04 19:43:00,62.0,42.0,-100.00,NW,305,3.0,9.0,48,0.00,,,0.00,108.000000,,2013-09-05 00:43:00,
2013-09-04 19:52:00,62.0,42.0,-100.00,NW,305,3.0,9.0,48,0.00,,,0.00,108.000000,,2013-09-05 00:52:00,
2013-09-04 20:01:00,62.0,42.0,-100.00,NW,305,3.0,9.0,48,0.00,,,0.00,108.000000,,2013-09-05 01:01:00,
2013-09-04 20:42:00,56.0,45.0,-100.00,West,280,2.0,5.0,66,0.00,,,0.00,10.000000,,2013-09-05 01:42:00,
2013-09-04 20:52:00,56.0,45.0,-100.00,West,280,2.0,5.0,66,0.00,,,0.00,10.000000,,2013-09-05 01:52:00,
2013-09-04 21:02:00,56.0,45.0,-100.00,West,280,2.0,5.0,66,0.00,,,0.00,10.000000,,2013-09-05 02:02:00,
2013-09-04 21:22:00,54.0,44.0,-100.00,WNW,299,2.0,3.0,68,0.00,,,0.00,0.000000,,2013-09-05 02:22:00,
2013-09-04 21:32:00,54.0,44.0,-100.00,WNW,299,2.0,3.0,68,0.00,,,0.00,0.000000,,2013-09-05 02:32:00,
2013-09-04 21:42:00,54.0,44.0,-100.00,WNW,299,2.0,3.0,68,0.00,,,0.00,0.000000,,2013-09-05 02:42:00,
2013-09-04 21:52:00,54.0,44.0,-100.00,WNW,299,2.0,3.0,68,0.00,,,0.00,0.000000,,2013-09-05 02:52:00,
2013-09-04 22:02:00,54.0,44.0,-100.00,WNW,299,2.0,3.0,68,0.00,,,0.00,0.000000,,2013-09-05 03:02:00,
2013-09-04 22:04:00,54.0,44.0,-100.00,WNW,284,3.0,4.0,68,0.00,,,0.00,0.000000,,2013-09-05 03:04:00,
2013-09-04 22:22:00,54.0,44.0,-100.00,WNW,284,3.0,4.0,68,0.00,,,0.00,0.000000,,2013-09-05 03:22:00,
2013-09-04 22:34:00,54.0,44.0,-100.00,WNW,284,3.0,4.0,68,0.00,,,0.00,0.000000,,2013-09-05 03:34:00,
2013-09-04 22:45:00,54.0,44.0,-100.00,WNW,284,3.0,4.0,68,0.00,,,0.00,0.000000,,2013-09-05 03:45:00,
2013-09-04 22:54:00,54.0,44.0,-100.00,WNW,284,3.0,4.0,68,0.00,,,0.00,0.000000,,2013-09-05 03:54:00,
2013-09-04 23:44:00,53.0,43.0,-100.00,NNW,344,2.0,4.0,69,0.00,,,0.00,0.000000,,2013-09-05 04:44:00,